Four Corners Regional Airport
KFMN : now visible

Airfield :











YOU CAN JOIN US ON...

 
LOGIN :

Register | Disclaimer

   EN    FR    IT 

 









Legend :    VFR   Marginal VFR   IFR   Intensive IFR   Very Intensive IFR
Visi :
Ceiling :
>= 8 km
>= 3000ft
5 to 8 km
1000 to 3000 ft
1500m to 5 km
500 to 1000 ft
800 to 1500m
200 to 500 ft
< 800m
< 200 ft
Symbols :   Thunderstorms  Fog  Heavy snow  Heavy precipitations  Wind > 20 kt







- Airport Elevation : 5506 ft


KFMN - Four Corners Regional

CURRENT METAR :
  • 201453Z 09005KT 10SM CLR 19/04 A3000 RMK AO2 SLP104 T01890044 53004

EXPIRED METARs :
  • 201353Z 10008KT 070V140 10SM CLR 14/07 A2999 RMK AO2 SLP108 T01440067
  • 201253Z 08009KT 10SM CLR 12/07 A2999 RMK AO2 SLP107 T01220072

TAF KFMN
Valid from the 20 at 12:00 until the 21 at 12:00 UTC


201120Z 2012/2112 10010KT P6SM SCT100
FM201730 25015G25KT P6SM FEW120
FM210100 29010KT P6SM SKC
No reported NOTAMs for that airfield.



MET'MAP, your aeronautical weather chart ! - Copyright ORBIFLY December 2007 - Disclaimer

ORBIFLY MET'MAP TEAM :

Programming & Development : Alexandra Zaïnal
Concept & Development : Baudouin d'Aumeries
Co-Development & Prog : Marc-Olivier Méhu
Technical & hardware support : Manuel Goepfert

Contact : metmap@orbifly.com




SOURCES & CREDITS :

   NOAA       Earth
Advisory